Time;durP1;ratioP1;P1;durP2;ratioP2;P2;SDS_P1;SDS_P2;PMS_P1;PMS_P2;Temp;Humidity;BMP_temperature;BMP_pressure;BME280_temperature;BME280_humidity;BME280_pressure;Samples;Min_cycle;Max_cycle;Signal;HPM_P1;HPM_P2
2022/08/15 00:01:08;;;;;;;10.85;2.63;;;24.00;99.90;;;;;;5070512;28;19916;-64
2022/08/15 00:03:38;;;;;;;8.77;3.08;;;23.90;99.90;;;;;;5072227;28;20508;-64
2022/08/15 00:06:07;;;;;;;6.97;2.67;;;24.00;99.90;;;;;;5074841;28;20040;-64
2022/08/15 00:08:36;;;;;;;4.10;2.50;;;24.20;99.90;;;;;;5074119;28;20115;-63
2022/08/15 00:11:15;;;;;;;3.88;2.30;;;24.40;99.90;;;;;;5073896;28;20484;-64
2022/08/15 00:13:43;;;;;;;6.20;2.70;;;24.50;99.90;;;;;;5074709;28;20103;-64
2022/08/15 00:16:10;;;;;;;3.78;2.65;;;24.40;99.90;;;;;;5075318;28;20028;-64
2022/08/15 00:18:36;;;;;;;5.47;2.58;;;24.20;99.90;;;;;;5074873;28;20527;-62
2022/08/15 00:21:03;;;;;;;6.75;2.83;;;24.10;99.90;;;;;;5074703;28;20016;-63
2022/08/15 00:23:29;;;;;;;5.07;2.60;;;24.00;99.90;;;;;;5074947;28;20032;-63
2022/08/15 00:26:00;;;;;;;7.53;2.65;;;23.80;99.90;;;;;;5074581;28;20078;-66
2022/08/15 00:28:27;;;;;;;8.00;2.60;;;23.70;99.90;;;;;;5074931;28;20036;-63
2022/08/15 00:30:54;;;;;;;4.25;2.60;;;23.70;99.90;;;;;;5075238;28;20434;-64
2022/08/15 00:33:20;;;;;;;6.47;2.90;;;23.50;99.90;;;;;;5074941;28;20042;-63
2022/08/15 00:35:49;;;;;;;6.45;2.78;;;23.40;99.90;;;;;;5074960;28;20469;-63
2022/08/15 00:38:23;;;;;;;5.13;2.53;;;23.40;99.90;;;;;;5074550;28;20513;-63
2022/08/15 00:43:41;;;;;;;10.38;2.55;;;23.30;99.90;;;;;;5074724;28;20093;-63
2022/08/15 00:46:10;;;;;;;5.40;3.08;;;23.20;99.90;;;;;;5074318;28;20059;-63
2022/08/15 00:48:43;;;;;;;4.65;2.63;;;23.00;99.90;;;;;;5075162;28;20029;-63
2022/08/15 00:51:26;;;;;;;8.82;2.75;;;23.00;99.90;;;;;;5073990;28;20020;-63
2022/08/15 00:53:57;;;;;;;6.13;2.70;;;23.00;99.90;;;;;;5072437;28;20067;-63
2022/08/15 00:56:29;;;;;;;4.90;2.55;;;22.90;99.90;;;;;;5073946;28;20401;-64
2022/08/15 00:58:55;;;;;;;;;;;22.80;99.90;;;;;;5074537;28;20033;-62
2022/08/15 01:01:22;;;;;;;3.70;2.45;;;22.80;99.90;;;;;;5074222;28;19924;-63
2022/08/15 01:03:49;;;;;;;6.40;2.72;;;22.70;99.90;;;;;;5072514;28;20037;-63
2022/08/15 01:06:17;;;;;;;9.30;2.67;;;22.70;99.90;;;;;;5074219;28;20124;-63
2022/08/15 01:08:45;;;;;;;5.43;2.53;;;22.70;99.90;;;;;;5074333;28;20034;-63
2022/08/15 01:11:28;;;;;;;7.18;2.75;;;22.70;99.90;;;;;;5074208;28;20041;-63
2022/08/15 01:13:56;;;;;;;5.45;2.53;;;22.70;99.90;;;;;;5073730;28;20052;-63
2022/08/15 01:16:23;;;;;;;7.18;2.42;;;22.70;99.90;;;;;;5073707;28;20025;-64
2022/08/15 01:18:51;;;;;;;5.63;2.63;;;22.60;99.90;;;;;;5074359;28;20047;-63
2022/08/15 01:21:31;;;;;;;7.28;2.75;;;22.60;99.90;;;;;;5074336;28;20020;-64
2022/08/15 01:24:25;;;;;;;7.50;2.30;;;22.60;99.90;;;;;;5073891;28;20029;-63
2022/08/15 01:26:52;;;;;;;3.90;2.55;;;22.60;99.90;;;;;;5073323;28;20016;-62
2022/08/15 01:29:18;;;;;;;4.20;2.40;;;22.70;99.90;;;;;;5073764;28;20044;-68
2022/08/15 01:31:46;;;;;;;4.43;2.78;;;22.70;99.90;;;;;;5073687;28;20424;-62
2022/08/15 01:34:12;;;;;;;6.75;3.10;;;22.60;99.90;;;;;;5073856;28;20028;-63
2022/08/15 01:36:37;;;;;;;6.65;2.53;;;22.60;99.90;;;;;;5073614;28;20016;-62
2022/08/15 01:39:12;;;;;;;4.63;2.63;;;22.50;99.90;;;;;;5073540;28;20392;-62
2022/08/15 01:41:46;;;;;;;4.88;2.75;;;22.50;99.90;;;;;;5073249;28;20545;-63
2022/08/15 01:44:42;;;;;;;5.88;2.78;;;22.50;99.90;;;;;;5072076;28;20039;-63
2022/08/15 01:47:08;;;;;;;5.80;2.50;;;22.50;99.90;;;;;;5073470;28;20430;-63
2022/08/15 01:49:41;;;;;;;6.97;2.60;;;22.40;99.90;;;;;;5073386;28;20043;-63
2022/08/15 01:52:08;;;;;;;8.23;2.42;;;22.30;99.90;;;;;;5073190;28;20155;-63
2022/08/15 01:54:39;;;;;;;8.20;2.97;;;22.20;99.90;;;;;;5071964;28;20501;-63
2022/08/15 01:57:05;;;;;;;4.82;2.83;;;22.30;99.90;;;;;;5073358;28;20016;-63
2022/08/15 01:59:32;;;;;;;2.88;2.40;;;22.20;99.90;;;;;;5072088;28;20025;-63
2022/08/15 02:02:02;;;;;;;4.85;2.70;;;22.10;99.90;;;;;;5072607;28;20031;-63
2022/08/15 02:04:37;;;;;;;6.30;2.92;;;22.10;99.90;;;;;;5073118;28;20088;-63
2022/08/15 02:07:17;;;;;;;7.63;2.70;;;22.00;99.90;;;;;;5073005;28;20085;-63
2022/08/15 02:09:44;;;;;;;5.18;3.08;;;22.00;99.90;;;;;;5071746;28;20574;-63
2022/08/15 02:12:10;;;;;;;5.18;3.10;;;22.00;99.90;;;;;;5072913;28;20020;-62
2022/08/15 02:14:41;;;;;;;5.53;2.90;;;21.90;99.90;;;;;;5072961;28;20048;-63
2022/08/15 02:17:08;;;;;;;3.95;2.80;;;21.90;99.90;;;;;;5073053;28;20043;-63
2022/08/15 02:19:35;;;;;;;6.05;2.70;;;21.90;99.90;;;;;;5071913;28;20505;-63
2022/08/15 02:22:01;;;;;;;4.97;2.75;;;21.80;99.90;;;;;;5072773;28;20021;-63
2022/08/15 02:24:27;;;;;;;4.18;2.70;;;21.80;99.90;;;;;;5072816;28;20036;-63
2022/08/15 02:26:54;;;;;;;5.28;2.80;;;21.70;99.90;;;;;;5071877;28;20413;-62
2022/08/15 02:29:25;;;;;;;5.05;2.97;;;21.60;99.90;;;;;;5072807;28;20904;-63
2022/08/15 02:31:57;;;;;;;4.15;2.80;;;21.60;99.90;;;;;;5072425;28;20107;-62
2022/08/15 02:34:23;;;;;;;4.63;3.10;;;21.60;99.90;;;;;;5072138;28;20107;-62
2022/08/15 02:36:50;;;;;;;4.63;2.70;;;21.60;99.90;;;;;;5072288;28;20501;-62
2022/08/15 02:39:16;;;;;;;7.57;3.10;;;21.70;99.90;;;;;;5071478;28;20035;-62
2022/08/15 02:41:48;;;;;;;4.95;2.80;;;21.60;99.90;;;;;;5071169;28;20023;-63
2022/08/15 02:44:15;;;;;;;4.72;3.33;;;21.50;99.90;;;;;;5072330;28;20025;-63
2022/08/15 02:46:41;;;;;;;8.50;3.08;;;21.50;99.90;;;;;;5071313;28;20028;-63
2022/08/15 02:49:10;;;;;;;4.72;2.85;;;21.50;99.90;;;;;;5073375;28;20089;-65
2022/08/15 02:51:37;;;;;;;4.95;2.83;;;21.60;99.90;;;;;;5071748;28;20509;-62
2022/08/15 02:54:05;;;;;;;4.15;2.92;;;21.70;99.90;;;;;;5071923;28;20036;-61
2022/08/15 02:56:31;;;;;;;5.38;3.15;;;21.60;99.90;;;;;;5071914;28;20477;-62
2022/08/15 02:58:57;;;;;;;11.90;3.72;;;21.60;99.90;;;;;;5072342;28;20070;-64
2022/08/15 03:01:24;;;;;;;6.95;3.30;;;21.60;99.90;;;;;;5071817;28;20052;-63
2022/08/15 03:03:51;;;;;;;4.00;3.28;;;21.60;99.90;;;;;;5071775;28;20029;-63
2022/08/15 03:06:30;;;;;;;6.53;3.08;;;21.60;99.90;;;;;;5072168;28;20033;-63
2022/08/15 03:09:00;;;;;;;4.82;3.05;;;21.70;99.90;;;;;;5071876;28;20032;-63
2022/08/15 03:11:27;;;;;;;5.20;3.45;;;21.70;99.90;;;;;;5072132;28;20016;-63
2022/08/15 03:13:53;;;;;;;6.10;3.15;;;21.70;99.90;;;;;;5070188;28;20068;-63
2022/08/15 03:16:20;;;;;;;4.78;3.10;;;21.70;99.90;;;;;;5071511;28;20023;-62
2022/08/15 03:18:46;;;;;;;4.10;3.00;;;21.70;99.90;;;;;;5072028;28;20021;-63
2022/08/15 03:21:16;;;;;;;7.50;3.10;;;21.70;99.90;;;;;;5071302;28;20020;-63
2022/08/15 03:23:50;;;;;;;6.72;3.13;;;21.70;99.90;;;;;;5071677;28;20039;-63
2022/08/15 03:26:21;;;;;;;4.95;3.10;;;21.80;99.90;;;;;;5071702;28;20024;-63
2022/08/15 03:28:47;;;;;;;4.43;3.13;;;21.70;99.90;;;;;;5071979;28;20071;-64
2022/08/15 03:31:13;;;;;;;4.03;2.95;;;21.70;99.90;;;;;;5071401;28;20052;-64
2022/08/15 03:33:41;;;;;;;7.38;3.60;;;21.70;99.90;;;;;;5071354;28;20021;-63
2022/08/15 03:36:08;;;;;;;5.05;3.10;;;21.70;99.90;;;;;;5071700;28;20032;-64
2022/08/15 03:38:34;;;;;;;4.20;3.10;;;21.70;99.90;;;;;;5071514;28;20508;-64
2022/08/15 03:41:00;;;;;;;3.83;3.10;;;21.60;99.90;;;;;;5070904;28;20021;-63
2022/08/15 03:43:28;;;;;;;4.82;3.10;;;21.50;99.90;;;;;;5071293;28;20028;-63
2022/08/15 03:46:04;;;;;;;5.07;3.13;;;21.60;99.90;;;;;;5071222;28;20033;-64
2022/08/15 03:48:34;;;;;;;6.65;2.80;;;21.60;99.90;;;;;;5071176;28;20524;-63
2022/08/15 03:51:01;;;;;;;6.50;3.53;;;21.60;99.90;;;;;;5071423;28;20052;-62
2022/08/15 03:53:35;;;;;;;7.25;2.83;;;21.60;99.90;;;;;;5071124;28;20445;-62
2022/08/15 03:56:04;;;;;;;5.00;2.72;;;21.50;99.90;;;;;;5071265;28;20029;-62
2022/08/15 03:58:30;;;;;;;5.07;3.10;;;21.50;99.90;;;;;;5069899;28;20070;-62
2022/08/15 04:00:58;;;;;;;5.68;2.92;;;21.30;99.90;;;;;;5070679;28;20497;-62
2022/08/15 04:03:26;;;;;;;6.20;3.58;;;21.30;99.90;;;;;;5070989;28;20032;-63
2022/08/15 04:05:57;;;;;;;4.95;3.00;;;21.30;99.90;;;;;;5070893;28;20030;-62
2022/08/15 04:08:25;;;;;;;5.65;3.33;;;21.30;99.90;;;;;;5071733;28;20041;-62
2022/08/15 04:10:53;;;;;;;3.83;3.40;;;21.20;99.90;;;;;;5071107;28;20024;-62
2022/08/15 04:13:24;;;;;;;4.75;3.30;;;21.20;99.90;;;;;;5070824;28;20040;-62
2022/08/15 04:15:54;;;;;;;3.90;3.20;;;21.20;99.90;;;;;;5070936;28;20021;-62
2022/08/15 04:18:20;;;;;;;4.90;3.45;;;21.10;99.90;;;;;;5069750;28;20171;-63
2022/08/15 04:20:47;;;;;;;7.68;3.40;;;21.00;99.90;;;;;;5071242;28;20486;-63
2022/08/15 04:23:13;;;;;;;5.25;3.17;;;21.10;99.90;;;;;;5070557;28;20094;-62
2022/08/15 04:25:41;;;;;;;4.82;3.33;;;21.10;99.90;;;;;;5070806;28;20056;-63
2022/08/15 04:28:08;;;;;;;4.70;3.42;;;21.10;99.90;;;;;;5071172;28;20039;-62
2022/08/15 04:30:37;;;;;;;6.63;3.95;;;21.10;99.90;;;;;;5070507;28;20529;-63
2022/08/15 04:33:11;;;;;;;7.15;3.75;;;21.10;99.90;;;;;;5070772;28;20195;-63
2022/08/15 04:35:38;;;;;;;4.93;3.55;;;21.10;99.90;;;;;;5070740;28;20524;-63
2022/08/15 04:38:04;;;;;;;6.07;3.50;;;21.00;99.90;;;;;;5070690;28;20047;-62
2022/08/15 04:40:30;;;;;;;3.67;3.33;;;21.00;99.90;;;;;;5070489;28;20073;-62
2022/08/15 04:42:58;;;;;;;4.80;3.40;;;21.00;99.90;;;;;;5070786;28;20508;-62
2022/08/15 04:45:25;;;;;;;5.85;3.75;;;21.00;99.90;;;;;;5069150;28;20035;-63
2022/08/15 04:47:51;;;;;;;7.15;4.10;;;21.00;99.90;;;;;;5070705;28;20028;-63
2022/08/15 04:50:17;;;;;;;7.10;3.72;;;21.10;99.90;;;;;;5072838;28;20028;-63
2022/08/15 04:52:51;;;;;;;6.13;3.95;;;21.10;99.90;;;;;;5074143;28;20085;-62
2022/08/15 04:55:19;;;;;;;6.90;3.80;;;21.10;99.90;;;;;;5073948;28;20052;-62
2022/08/15 04:57:45;;;;;;;8.90;4.10;;;21.10;99.90;;;;;;5074253;28;20032;-62
2022/08/15 05:00:13;;;;;;;7.70;3.70;;;21.10;99.90;;;;;;5074014;28;20040;-62
2022/08/15 05:02:39;;;;;;;7.03;4.22;;;21.10;99.90;;;;;;5073853;28;20040;-63
2022/08/15 05:05:08;;;;;;;5.68;3.90;;;21.10;99.90;;;;;;5073875;28;20067;-62
2022/08/15 05:07:34;;;;;;;6.70;3.47;;;21.30;99.90;;;;;;5073511;28;20162;-62
2022/08/15 05:10:01;;;;;;;4.82;3.80;;;21.20;99.90;;;;;;5073741;28;20021;-63
2022/08/15 05:12:28;;;;;;;4.57;3.90;;;21.20;99.90;;;;;;5073780;28;20077;-63
2022/08/15 05:14:56;;;;;;;4.78;4.05;;;21.30;99.90;;;;;;5072109;28;20423;-63
2022/08/15 05:17:21;;;;;;;6.90;4.57;;;21.40;99.90;;;;;;5073443;28;20139;-63
2022/08/15 05:19:47;;;;;;;6.68;4.22;;;21.40;99.90;;;;;;5073793;28;20111;-62
2022/08/15 05:22:13;;;;;;;7.72;3.85;;;21.40;99.90;;;;;;5073248;28;20021;-62
2022/08/15 05:24:39;;;;;;;6.95;4.13;;;21.40;99.90;;;;;;5073225;28;20029;-62
2022/08/15 05:27:05;;;;;;;5.88;3.92;;;21.20;99.90;;;;;;5073328;28;20424;-62
2022/08/15 05:29:31;;;;;;;6.65;4.30;;;21.00;99.90;;;;;;5073594;28;20074;-62
2022/08/15 05:31:58;;;;;;;5.25;4.18;;;20.90;99.90;;;;;;5073430;28;20025;-62
2022/08/15 05:34:23;;;;;;;7.45;4.63;;;21.00;99.90;;;;;;5073144;28;20630;-62
2022/08/15 05:36:49;;;;;;;7.13;4.57;;;20.90;99.90;;;;;;5071928;28;20021;-62
2022/08/15 05:39:22;;;;;;;8.25;4.80;;;20.90;99.90;;;;;;5073361;28;20028;-62
2022/08/15 05:42:12;;;;;;;9.23;4.78;;;20.80;99.90;;;;;;5073285;28;20525;-61
2022/08/15 05:44:59;;;;;;;6.80;5.38;;;20.90;99.90;;;;;;5073091;28;20043;-63
2022/08/15 05:47:32;;;;;;;6.05;5.03;;;20.90;99.90;;;;;;5073391;28;20111;-62
2022/08/15 05:50:17;;;;;;;8.00;5.15;;;21.00;99.90;;;;;;5073083;28;20016;-62
2022/08/15 05:52:56;;;;;;;9.45;5.20;;;20.80;99.90;;;;;;5071394;28;20028;-62
2022/08/15 05:55:56;;;;;;;8.25;5.63;;;20.70;99.90;;;;;;5072896;28;20027;-62
2022/08/15 05:58:41;;;;;;;9.30;5.28;;;20.60;99.90;;;;;;5053279;28;20048;-62
2022/08/15 06:01:23;;;;;;;7.35;5.72;;;20.60;99.90;;;;;;5071369;28;20412;-62
2022/08/15 06:03:55;;;;;;;10.27;5.63;;;20.60;99.90;;;;;;5073583;28;20060;-62
2022/08/15 06:06:26;;;;;;;9.30;5.97;;;20.60;99.90;;;;;;5071705;28;20082;-63
2022/08/15 06:08:59;;;;;;;5.88;5.30;;;20.70;99.90;;;;;;5072702;28;20497;-62
2022/08/15 06:11:34;;;;;;;5.80;5.13;;;20.70;99.90;;;;;;5072487;28;20056;-63
2022/08/15 06:14:33;;;;;;;8.73;5.68;;;20.80;99.90;;;;;;5072381;28;20086;-63
2022/08/15 06:17:08;;;;;;;9.10;5.68;;;20.80;99.90;;;;;;5072337;28;20071;-62
2022/08/15 06:19:39;;;;;;;8.13;5.13;;;20.80;99.90;;;;;;5072787;28;20543;-62
2022/08/15 06:22:14;;;;;;;7.45;5.20;;;20.90;99.90;;;;;;5072281;28;20074;-62
2022/08/15 06:25:05;;;;;;;7.43;5.13;;;20.90;99.90;;;;;;5072131;28;20102;-64
2022/08/15 06:27:33;;;;;;;10.13;5.45;;;20.90;99.90;;;;;;5071930;28;20077;-62
2022/08/15 06:30:28;;;;;;;9.90;5.95;;;21.00;99.90;;;;;;5072629;28;20446;-62
2022/08/15 06:33:25;;;;;;;8.80;6.30;;;21.00;99.90;;;;;;5070661;28;20163;-62
2022/08/15 06:36:18;;;;;;;7.18;5.85;;;21.00;99.90;;;;;;5072075;28;20056;-62
2022/08/15 06:39:15;;;;;;;7.95;6.15;;;21.10;99.90;;;;;;5072036;28;20025;-62
2022/08/15 06:41:58;;;;;;;6.50;5.75;;;21.10;99.90;;;;;;5069471;28;20493;-63
2022/08/15 06:44:26;;;;;;;7.90;6.07;;;21.30;99.90;;;;;;5071726;28;20032;-62
2022/08/15 06:46:54;;;;;;;8.20;5.63;;;21.20;99.90;;;;;;5071609;28;20036;-62
2022/08/15 06:49:21;;;;;;;8.15;6.00;;;21.30;99.90;;;;;;5071870;28;20052;-63
2022/08/15 06:51:47;;;;;;;9.52;6.38;;;21.30;99.90;;;;;;5070332;28;20055;-63
2022/08/15 06:54:25;;;;;;;7.72;6.30;;;21.40;99.90;;;;;;5071256;28;20393;-62
2022/08/15 06:57:08;;;;;;;9.60;6.40;;;21.60;99.90;;;;;;5071511;28;20021;-62
2022/08/15 06:59:53;;;;;;;8.63;6.10;;;21.60;99.90;;;;;;5071518;28;20681;-62
2022/08/15 07:02:21;;;;;;;13.35;6.13;;;21.60;99.90;;;;;;5070180;28;20032;-63
2022/08/15 07:05:07;;;;;;;10.63;6.57;;;21.80;99.90;;;;;;5071133;28;20028;-63
2022/08/15 07:07:55;;;;;;;9.52;7.35;;;21.90;99.90;;;;;;5071310;28;20028;-63
2022/08/15 07:10:33;;;;;;;8.93;6.65;;;21.90;99.90;;;;;;5071265;28;20088;-63
2022/08/15 07:13:20;;;;;;;7.78;6.72;;;22.10;99.90;;;;;;5070773;28;20032;-63
2022/08/15 07:15:56;;;;;;;13.30;7.72;;;22.30;99.90;;;;;;5071172;28;20055;-62
2022/08/15 07:18:30;;;;;;;9.95;7.40;;;22.40;99.90;;;;;;5071359;28;20103;-63
2022/08/15 07:21:02;;;;;;;10.07;7.45;;;22.80;99.90;;;;;;5071041;28;20024;-63
2022/08/15 07:23:30;;;;;;;11.90;7.25;;;23.00;99.90;;;;;;5071227;28;20097;-63
2022/08/15 07:26:04;;;;;;;9.65;5.88;;;23.90;99.90;;;;;;5071072;28;20034;-63
2022/08/15 07:28:33;;;;;;;8.15;6.07;;;25.30;99.90;;;;;;5071418;28;20774;-64
2022/08/15 07:31:33;;;;;;;9.00;6.43;;;26.20;99.90;;;;;;5070921;28;20528;-63
2022/08/15 07:34:05;;;;;;;8.40;6.88;;;25.40;99.90;;;;;;5068583;28;20041;-63
2022/08/15 07:36:34;;;;;;;8.80;6.35;;;25.50;99.90;;;;;;5070736;28;20024;-63
2022/08/15 07:39:19;;;;;;;7.63;5.80;;;25.80;99.90;;;;;;5071089;28;20020;-64
2022/08/15 07:41:45;;;;;;;11.77;6.60;;;25.80;99.90;;;;;;5070792;28;20028;-63
2022/08/15 07:44:31;;;;;;;6.70;6.03;;;25.60;99.90;;;;;;5069353;28;20028;-63
2022/08/15 07:47:01;;;;;;;7.25;6.55;;;24.70;99.90;;;;;;5070926;28;20370;-63
2022/08/15 07:49:30;;;;;;;8.48;6.68;;;24.00;99.90;;;;;;5071340;28;20086;-63
2022/08/15 07:52:16;;;;;;;9.50;7.07;;;23.60;99.90;;;;;;5071171;28;20024;-63
2022/08/15 07:54:41;;;;;;;10.02;7.15;;;23.50;99.90;;;;;;5070964;28;20029;-63
2022/08/15 07:57:33;;;;;;;7.88;6.60;;;23.20;99.90;;;;;;5070898;28;20366;-62
2022/08/15 08:00:14;;;;;;;9.85;6.72;;;23.00;99.90;;;;;;5071294;28;20044;-63
2022/08/15 08:03:03;;;;;;;8.88;6.53;;;23.00;99.90;;;;;;5070516;28;20028;-63
2022/08/15 08:05:53;;;;;;;9.60;6.70;;;23.20;99.90;;;;;;5070060;28;20493;-63
2022/08/15 08:08:22;;;;;;;10.48;6.80;;;23.30;99.90;;;;;;5071257;28;20028;-63
2022/08/15 08:11:01;;;;;;;8.80;7.20;;;23.20;99.90;;;;;;5070614;28;20017;-63
2022/08/15 08:13:51;;;;;;;7.85;6.85;;;23.20;99.90;;;;;;5070903;28;20028;-63
2022/08/15 08:16:33;;;;;;;11.57;6.78;;;23.00;99.90;;;;;;5070708;28;20466;-63
2022/08/15 08:19:08;;;;;;;;;;;23.00;99.90;;;;;;5071164;28;20039;-63
2022/08/15 08:21:40;;;;;;;10.07;7.20;;;23.10;99.90;;;;;;5070399;28;19908;-62
2022/08/15 08:24:28;;;;;;;8.02;6.07;;;23.00;99.90;;;;;;5070779;28;20033;-63
2022/08/15 08:27:12;;;;;;;9.38;6.00;;;23.00;99.90;;;;;;5074240;28;20035;-63
2022/08/15 08:30:19;;;;;;;7.43;5.68;;;23.50;99.90;;;;;;5074859;28;20034;-63
2022/08/15 08:32:59;;;;;;;8.93;5.60;;;23.90;99.90;;;;;;5073599;28;20436;-62
2022/08/15 08:35:31;;;;;;;11.55;5.75;;;23.80;99.90;;;;;;5074541;28;20028;-63
2022/08/15 08:38:17;;;;;;;11.25;6.70;;;23.90;99.90;;;;;;5074379;28;20029;-63
2022/08/15 08:43:46;;;;;;;7.43;5.97;;;24.40;99.90;;;;;;5075042;28;20051;-64
2022/08/15 08:46:33;;;;;;;7.35;5.10;;;26.10;99.90;;;;;;5073243;28;20052;-64
2022/08/15 08:49:20;;;;;;;6.68;4.70;;;27.30;99.90;;;;;;5073315;28;20546;-64
2022/08/15 08:52:04;;;;;;;6.40;4.80;;;27.40;99.90;;;;;;5053122;28;20044;-64
2022/08/15 08:54:41;;;;;;;7.55;5.03;;;26.70;99.90;;;;;;5073819;28;20103;-64
2022/08/15 08:57:11;;;;;;;7.82;5.30;;;26.10;99.90;;;;;;5074154;28;20024;-64
2022/08/15 08:59:47;;;;;;;5.72;5.10;;;26.50;99.90;;;;;;5074330;28;20032;-64
2022/08/15 09:02:28;;;;;;;5.60;4.85;;;27.10;99.90;;;;;;5072594;28;20027;-63
2022/08/15 09:05:01;;;;;;;4.68;4.25;;;27.30;99.90;;;;;;5073724;28;20056;-65
2022/08/15 09:07:32;;;;;;;6.32;4.47;;;27.80;99.90;;;;;;5072609;28;20051;-64
2022/08/15 09:10:01;;;;;;;5.25;4.45;;;28.10;99.90;;;;;;5073894;28;20020;-64
2022/08/15 09:15:21;;;;;;;4.93;3.85;;;29.10;99.90;;;;;;5073861;28;20039;-64
2022/08/15 09:17:53;;;;;;;6.00;4.43;;;28.90;99.90;;;;;;5073647;28;20103;-64
2022/08/15 09:20:25;;;;;;;4.97;4.30;;;28.40;99.90;;;;;;5073806;28;20021;-64
2022/08/15 09:22:51;;;;;;;6.07;4.03;;;28.20;99.90;;;;;;5073864;28;20024;-65
2022/08/15 09:25:18;;;;;;;8.98;4.30;;;29.10;99.90;;;;;;5073424;28;20123;-65
2022/08/15 09:28:03;;;;;;;6.75;4.65;;;29.10;99.90;;;;;;5072433;28;20029;-65
2022/08/15 09:30:29;;;;;;;4.60;3.97;;;29.10;99.90;;;;;;5073449;28;20118;-64
2022/08/15 09:33:28;;;;;;;6.72;3.60;;;29.30;99.90;;;;;;5073060;28;20082;-65
2022/08/15 09:36:14;;;;;;;5.22;3.70;;;29.50;99.90;;;;;;5056738;28;20045;-65
2022/08/15 09:39:02;;;;;;;5.57;3.40;;;28.80;99.90;;;;;;5073673;28;20039;-65
2022/08/15 09:41:44;;;;;;;10.45;4.32;;;28.40;99.90;;;;;;5073261;28;20024;-64
2022/08/15 09:44:09;;;;;;;;;;;28.50;99.90;;;;;;5073534;28;20139;-65
2022/08/15 09:47:17;;;;;;;8.77;3.70;;;28.40;99.90;;;;;;5072766;28;19916;-64
2022/08/15 09:50:26;;;;;;;6.15;3.70;;;28.80;99.90;;;;;;5057323;28;20151;-64
2022/08/15 09:53:10;;;;;;;6.07;3.85;;;29.80;99.10;;;;;;5073125;28;20201;-64
2022/08/15 09:55:44;;;;;;;5.60;3.90;;;28.90;99.20;;;;;;5073070;28;20024;-64
2022/08/15 09:58:26;;;;;;;5.70;4.15;;;28.40;99.90;;;;;;5071959;28;20029;-64
2022/08/15 10:00:59;;;;;;;6.63;4.28;;;27.60;99.90;;;;;;5072592;28;20049;-64
2022/08/15 10:03:44;;;;;;;6.28;4.20;;;27.70;99.90;;;;;;5072960;28;20090;-63
2022/08/15 10:06:16;;;;;;;6.78;3.75;;;27.70;99.90;;;;;;5065434;28;20039;-65
2022/08/15 10:08:51;;;;;;;8.27;4.47;;;27.00;99.90;;;;;;5072609;28;20032;-63
2022/08/15 10:11:30;;;;;;;7.47;4.28;;;26.50;99.90;;;;;;5072470;28;20374;-64
2022/08/15 10:14:06;;;;;;;8.32;4.32;;;26.60;99.90;;;;;;5072577;28;20021;-65
2022/08/15 10:16:40;;;;;;;5.60;3.65;;;27.30;99.90;;;;;;5074223;28;20444;-64
2022/08/15 10:19:27;;;;;;;4.15;3.50;;;28.10;99.90;;;;;;5092632;28;20032;-65
2022/08/15 10:21:55;;;;;;;4.32;3.50;;;28.90;99.20;;;;;;5092846;28;20039;-64
2022/08/15 10:24:29;;;;;;;6.15;3.67;;;29.20;98.10;;;;;;5092656;28;20059;-65
2022/08/15 10:27:07;;;;;;;8.43;4.35;;;29.40;97.80;;;;;;5092420;28;20447;-65
2022/08/15 10:29:48;;;;;;;8.98;4.00;;;29.20;98.00;;;;;;5091226;28;20029;-64
2022/08/15 10:32:24;;;;;;;5.80;3.67;;;28.40;99.50;;;;;;5092786;28;20028;-64
2022/08/15 10:35:03;;;;;;;9.25;3.20;;;28.50;99.90;;;;;;5092424;28;20081;-64
2022/08/15 10:37:36;;;;;;;7.10;3.35;;;29.70;97.70;;;;;;5091095;28;20036;-64
2022/08/15 10:40:34;;;;;;;5.95;3.45;;;29.40;98.10;;;;;;5093015;28;20020;-64
2022/08/15 10:43:11;;;;;;;7.78;3.42;;;29.60;97.60;;;;;;5090678;28;20028;-64
2022/08/15 10:45:55;;;;;;;5.53;3.13;;;29.20;97.90;;;;;;5092043;28;20366;-65
2022/08/15 10:48:49;;;;;;;5.20;3.03;;;29.40;96.30;;;;;;5091505;28;20024;-64
2022/08/15 10:51:47;;;;;;;6.85;3.42;;;30.00;95.60;;;;;;5092138;28;20028;-64
2022/08/15 10:54:36;;;;;;;6.57;3.40;;;30.20;93.90;;;;;;5067919;28;20048;-65
2022/08/15 10:57:07;;;;;;;4.53;3.65;;;29.90;95.50;;;;;;5070874;28;20529;-65
2022/08/15 10:59:39;;;;;;;4.60;3.28;;;29.80;95.20;;;;;;5090683;28;20032;-64
2022/08/15 11:02:36;;;;;;;5.80;3.75;;;29.70;95.90;;;;;;5091547;28;20032;-64
2022/08/15 11:05:24;;;;;;;7.57;4.22;;;29.20;96.80;;;;;;5091767;28;20073;-68
2022/08/15 11:07:53;;;;;;;6.13;4.15;;;29.00;96.70;;;;;;5091057;28;20040;-64
2022/08/15 11:10:22;;;;;;;6.47;4.28;;;28.90;97.70;;;;;;5090033;28;20027;-64
2022/08/15 11:12:51;;;;;;;7.18;4.20;;;29.10;97.90;;;;;;5091658;28;20419;-64
2022/08/15 11:15:41;;;;;;;6.32;3.90;;;29.20;97.30;;;;;;5089888;28;20389;-65
2022/08/15 11:18:08;;;;;;;4.82;3.70;;;29.60;96.30;;;;;;5091898;28;20024;-65
2022/08/15 11:20:44;;;;;;;5.75;3.85;;;29.60;96.30;;;;;;5090026;28;20043;-65
2022/08/15 11:23:10;;;;;;;7.82;4.05;;;30.00;96.20;;;;;;5091560;28;20524;-65
2022/08/15 11:25:39;;;;;;;4.97;3.30;;;30.60;94.80;;;;;;5091382;28;20063;-64
2022/08/15 11:28:06;;;;;;;8.40;3.67;;;30.50;95.10;;;;;;5091560;28;20119;-65
2022/08/15 11:30:36;;;;;;;5.28;3.40;;;31.00;94.30;;;;;;5091186;28;20081;-65
2022/08/15 11:33:24;;;;;;;4.88;3.28;;;31.40;92.40;;;;;;5091187;28;20089;-65
2022/08/15 11:36:03;;;;;;;4.90;3.42;;;31.40;91.40;;;;;;5091197;28;20021;-65
2022/08/15 11:38:31;;;;;;;5.72;3.80;;;31.40;91.00;;;;;;5090213;28;20021;-65
2022/08/15 11:40:59;;;;;;;5.55;3.53;;;31.00;92.00;;;;;;5091066;28;20024;-65
2022/08/15 11:43:25;;;;;;;5.72;3.85;;;31.40;91.20;;;;;;5091215;28;20483;-65
2022/08/15 11:45:53;;;;;;;5.07;3.67;;;31.50;90.60;;;;;;5090944;28;20020;-65
2022/08/15 11:48:28;;;;;;;5.65;4.22;;;31.50;90.40;;;;;;5091257;28;20028;-65
2022/08/15 11:51:07;;;;;;;5.45;4.10;;;31.00;90.60;;;;;;5090914;28;20026;-65
2022/08/15 11:53:58;;;;;;;6.85;3.63;;;29.80;93.10;;;;;;5091573;28;20480;-65
2022/08/15 11:56:24;;;;;;;6.20;3.80;;;30.20;93.20;;;;;;5089496;28;20026;-65
2022/08/15 11:58:50;;;;;;;5.00;3.60;;;31.00;92.50;;;;;;5091338;28;20401;-65
2022/08/15 12:01:26;;;;;;;6.65;3.72;;;31.40;88.90;;;;;;5094839;28;20048;-66
2022/08/15 12:04:04;;;;;;;8.85;3.33;;;32.10;87.70;;;;;;5095092;28;20024;-66
2022/08/15 12:06:33;;;;;;;4.32;3.00;;;32.70;85.60;;;;;;5095131;28;20048;-66
2022/08/15 12:09:26;;;;;;;7.40;3.67;;;32.90;82.60;;;;;;5095716;28;20032;-65
2022/08/15 12:11:52;;;;;;;4.55;3.80;;;31.90;83.30;;;;;;5093758;28;20035;-66
2022/08/15 12:14:27;;;;;;;7.75;3.97;;;31.00;86.50;;;;;;5095077;28;20530;-64
2022/08/15 12:17:05;;;;;;;4.68;3.97;;;29.90;91.30;;;;;;5095391;28;20274;-65
2022/08/15 12:19:37;;;;;;;6.55;3.70;;;30.30;91.10;;;;;;5095809;28;20385;-65
2022/08/15 12:22:13;;;;;;;5.05;3.40;;;30.70;90.40;;;;;;5095197;28;20066;-65
2022/08/15 12:24:41;;;;;;;5.57;3.45;;;31.50;87.50;;;;;;5095131;28;20479;-66
2022/08/15 12:27:07;;;;;;;3.97;3.28;;;32.50;83.20;;;;;;5095035;28;20024;-66
2022/08/15 12:29:33;;;;;;;5.13;3.42;;;32.40;81.90;;;;;;5095773;28;20032;-65
2022/08/15 12:32:00;;;;;;;9.25;3.65;;;32.60;80.30;;;;;;5095466;28;20047;-66
2022/08/15 12:34:36;;;;;;;4.35;3.30;;;32.20;81.20;;;;;;5094990;28;20115;-65
2022/08/15 12:37:05;;;;;;;7.68;3.83;;;31.70;82.20;;;;;;5095466;28;20468;-66
2022/08/15 12:39:30;;;;;;;6.45;3.53;;;31.40;84.00;;;;;;5094956;28;20116;-64
2022/08/15 12:41:56;;;;;;;4.82;3.60;;;31.80;81.60;;;;;;5095000;28;20055;-67
2022/08/15 12:44:28;;;;;;;6.85;3.47;;;31.90;80.10;;;;;;5093413;28;20108;-64
2022/08/15 12:46:55;;;;;;;5.45;3.70;;;30.90;83.50;;;;;;5094803;28;20028;-65
2022/08/15 12:49:21;;;;;;;5.03;3.60;;;30.50;85.70;;;;;;5093486;28;20082;-65
2022/08/15 12:51:47;;;;;;;8.75;3.72;;;31.10;84.00;;;;;;5093097;28;20036;-65
2022/08/15 12:54:13;;;;;;;6.57;3.72;;;31.30;82.90;;;;;;5094272;28;20504;-65
2022/08/15 12:56:42;;;;;;;6.15;4.00;;;30.60;83.50;;;;;;5094463;28;20443;-66
2022/08/15 12:59:12;;;;;;;6.80;3.80;;;31.00;83.90;;;;;;5094582;28;20055;-66
2022/08/15 13:01:41;;;;;;;5.15;3.53;;;31.90;82.10;;;;;;5094570;28;20450;-66
2022/08/15 13:04:10;;;;;;;5.45;3.50;;;32.90;78.60;;;;;;5093672;28;20048;-65
2022/08/15 13:06:58;;;;;;;9.52;3.67;;;32.80;78.10;;;;;;5093570;28;20052;-65
2022/08/15 13:09:28;;;;;;;9.65;4.20;;;32.90;76.00;;;;;;5094587;28;20038;-64
2022/08/15 13:11:55;;;;;;;6.57;3.88;;;31.60;78.20;;;;;;5093999;28;20034;-65
2022/08/15 13:14:21;;;;;;;6.10;3.90;;;30.90;80.30;;;;;;5093864;28;20039;-65
2022/08/15 13:16:48;;;;;;;7.80;4.18;;;30.00;83.40;;;;;;5093617;28;20024;-65
2022/08/15 13:19:17;;;;;;;6.50;3.55;;;30.10;81.50;;;;;;5092761;28;20027;-65
2022/08/15 13:24:28;;;;;;;7.68;3.80;;;30.10;82.70;;;;;;5093868;28;20127;-65
2022/08/15 13:26:54;;;;;;;5.68;3.58;;;32.30;79.50;;;;;;5094182;28;20054;-64
2022/08/15 13:29:20;;;;;;;7.05;3.00;;;33.30;74.00;;;;;;5094505;28;20028;-65
2022/08/15 13:31:47;;;;;;;3.85;3.17;;;33.00;72.20;;;;;;5094399;28;20024;-63